Time;durP1;ratioP1;P1;durP2;ratioP2;P2;SDS_P1;SDS_P2;PMS_P1;PMS_P2;Temp;Humidity;BMP_temperature;BMP_pressure;BME280_temperature;BME280_humidity;BME280_pressure;Samples;Min_cycle;Max_cycle;Signal;HPM_P1;HPM_P2
2021/09/11 00:01:14;;;;;;;;;;;17.00;99.90;;;;;;5012546;28;19917;-70
2021/09/11 00:03:40;;;;;;;;;;;17.00;99.90;;;;;;5012906;28;20075;-68
2021/09/11 00:06:05;;;;;;;;;;;17.00;99.90;;;;;;5012718;28;20337;-73
2021/09/11 00:08:31;;;;;;;;;;;17.00;99.90;;;;;;5012522;28;20310;-69
2021/09/11 00:10:56;;;;;;;;;;;17.00;99.90;;;;;;5012751;28;19976;-69
2021/09/11 00:13:22;;;;;;;;;;;17.10;99.90;;;;;;5012726;28;19925;-68
2021/09/11 00:15:49;;;;;;;;;;;18.00;99.90;;;;;;5012028;28;20352;-69
2021/09/11 00:18:21;;;;;;;;;;;17.10;99.90;;;;;;5075389;27;19921;-69
2021/09/11 00:20:47;;;;;;;;;;;17.10;99.90;;;;;;5068489;28;20015;-70
2021/09/11 00:23:13;;;;;;;;;;;17.10;99.90;;;;;;5069107;28;20132;-69
2021/09/11 00:25:39;;;;;;;;;;;17.10;99.90;;;;;;5068643;28;19923;-69
2021/09/11 00:28:05;;;;;;;;;;;17.10;99.90;;;;;;5068379;28;19957;-69
2021/09/11 00:30:31;;;;;;;;;;;17.10;99.90;;;;;;5068798;28;19939;-69
2021/09/11 00:32:56;;;;;;;;;;;17.10;99.90;;;;;;5068647;28;20381;-69
2021/09/11 00:35:22;;;;;;;;;;;17.10;99.90;;;;;;5067796;28;19917;-69
2021/09/11 00:37:47;;;;;;;;;;;17.10;99.90;;;;;;5068339;28;20278;-69
2021/09/11 00:40:14;;;;;;;;;;;17.10;99.90;;;;;;5067145;28;20003;-69
2021/09/11 00:42:46;;;;;;;;;;;17.10;99.90;;;;;;5068059;28;20000;-69
2021/09/11 00:45:12;;;;;;;;;;;17.10;99.90;;;;;;5068095;28;19924;-69
2021/09/11 00:47:38;;;;;;;;;;;17.10;99.90;;;;;;5049845;28;19916;-69
2021/09/11 00:50:03;;;;;;;;;;;17.10;99.90;;;;;;5068284;28;19917;-69
2021/09/11 00:52:29;;;;;;;;;;;17.00;99.90;;;;;;5067127;28;19917;-69
2021/09/11 00:55:20;;;;;;;;;;;17.10;99.90;;;;;;5067478;28;20008;-69
2021/09/11 00:57:49;;;;;;;;;;;17.10;99.90;;;;;;5068092;28;19921;-69
2021/09/11 01:00:15;;;;;;;;;;;17.10;99.90;;;;;;5067872;28;19916;-69
2021/09/11 01:02:41;;;;;;;;;;;17.10;99.90;;;;;;5066991;28;19917;-70
2021/09/11 01:05:07;;;;;;;;;;;17.00;99.90;;;;;;5066143;28;19921;-69
2021/09/11 01:07:34;;;;;;;;;;;17.00;99.90;;;;;;5067890;28;19924;-68
2021/09/11 01:10:01;;;;;;;;;;;17.00;99.90;;;;;;5066663;28;20373;-68
2021/09/11 01:12:27;;;;;;;;;;;17.00;99.90;;;;;;5067477;28;19975;-68
2021/09/11 01:14:52;;;;;;;;;;;16.90;99.90;;;;;;5067632;28;19917;-70
2021/09/11 01:17:18;;;;;;;;;;;16.90;99.90;;;;;;5079476;28;20011;-69
2021/09/11 01:19:44;;;;;;;;;;;16.90;99.90;;;;;;5087625;28;20337;-69
2021/09/11 01:22:16;;;;;;;;;;;16.90;99.90;;;;;;5088031;28;19956;-69
2021/09/11 01:25:11;;;;;;;;;;;16.90;99.90;;;;;;5087112;28;20388;-67
2021/09/11 01:27:36;;;;;;;;;;;16.90;99.90;;;;;;5072610;28;19966;-69
2021/09/11 01:30:04;;;;;;;;;;;17.00;99.90;;;;;;5072579;28;19921;-68
2021/09/11 01:32:30;;;;;;;;;;;16.90;99.90;;;;;;5074296;28;19921;-70
2021/09/11 01:34:56;;;;;;;;;;;16.90;99.90;;;;;;5073545;28;20373;-70
2021/09/11 01:37:22;;;;;;;;;;;16.90;99.90;;;;;;5055940;28;19920;-68
2021/09/11 01:39:48;;;;;;;;;;;16.90;99.90;;;;;;5074215;28;19939;-70
2021/09/11 01:42:18;;;;;;;;;;;16.90;99.90;;;;;;5073668;28;19920;-68
2021/09/11 01:44:47;;;;;;;;;;;16.90;99.90;;;;;;5074002;28;19924;-69
2021/09/11 01:47:13;;;;;;;;;;;16.80;99.90;;;;;;5072286;28;20296;-69
2021/09/11 01:49:38;;;;;;;;;;;16.90;99.90;;;;;;5073943;28;19916;-69
2021/09/11 01:52:04;;;;;;;;;;;16.90;99.90;;;;;;5072624;28;19916;-69
2021/09/11 01:54:29;;;;;;;;;;;16.80;99.90;;;;;;5072007;28;19966;-70
2021/09/11 01:56:55;;;;;;;;;;;16.90;99.90;;;;;;5072390;28;19921;-69
2021/09/11 01:59:20;;;;;;;;;;;16.90;99.90;;;;;;5073897;28;20300;-70
2021/09/11 02:01:46;;;;;;;;;;;16.90;99.90;;;;;;5073321;28;19917;-67
2021/09/11 02:04:13;;;;;;;;;;;16.90;99.90;;;;;;5073720;28;20003;-70
2021/09/11 02:06:39;;;;;;;;;;;16.90;99.90;;;;;;5071734;28;20003;-69
2021/09/11 02:09:04;;;;;;;;;;;17.00;99.90;;;;;;5073412;28;20130;-69
2021/09/11 02:11:30;;;;;;;;;;;17.00;99.90;;;;;;5073651;28;19947;-69
2021/09/11 02:13:55;;;;;;;;;;;16.90;99.90;;;;;;5071953;28;19916;-69
2021/09/11 02:16:21;;;;;;;;;;;17.00;99.90;;;;;;5072988;28;19925;-69
2021/09/11 02:18:46;;;;;;;;;;;17.00;99.90;;;;;;5072101;28;19916;-69
2021/09/11 02:21:12;;;;;;;;;;;17.00;99.90;;;;;;5072915;28;20384;-69
2021/09/11 02:23:37;;;;;;;;;;;17.00;99.90;;;;;;5073322;28;20021;-69
2021/09/11 02:26:03;;;;;;;;;;;17.10;99.90;;;;;;5073014;28;20303;-69
2021/09/11 02:28:28;;;;;;;;;;;17.10;99.90;;;;;;5073096;28;19976;-69
2021/09/11 02:30:54;;;;;;;;;;;17.10;99.90;;;;;;5071886;28;19917;-69
2021/09/11 02:33:20;;;;;;;;;;;17.10;99.90;;;;;;5072863;28;19916;-69
2021/09/11 02:35:45;;;;;;;;;;;17.10;99.90;;;;;;5071540;28;20364;-70
2021/09/11 02:38:11;;;;;;;;;;;17.10;99.90;;;;;;5072791;28;20361;-69
2021/09/11 02:40:36;;;;;;;;;;;17.00;99.90;;;;;;5053548;28;20354;-69
2021/09/11 02:43:02;;;;;;;;;;;17.00;99.90;;;;;;5071778;28;20446;-70
2021/09/11 02:45:27;;;;;;;;;;;16.90;99.90;;;;;;5072334;28;19917;-69
2021/09/11 02:47:53;;;;;;;;;;;16.90;99.90;;;;;;5072672;28;19927;-69
2021/09/11 02:50:18;;;;;;;;;;;17.00;99.90;;;;;;5072692;28;19916;-69
2021/09/11 02:52:44;;;;;;;;;;;17.00;99.90;;;;;;5072520;28;20001;-69
2021/09/11 02:55:09;;;;;;;;;;;17.10;99.90;;;;;;5071118;28;19991;-69
2021/09/11 02:57:35;;;;;;;;;;;17.10;99.90;;;;;;5072544;28;19928;-69
2021/09/11 03:00:00;;;;;;;;;;;17.10;99.90;;;;;;5071124;28;19916;-69
2021/09/11 03:02:26;;;;;;;;;;;17.10;99.90;;;;;;5071178;28;20007;-70
2021/09/11 03:04:51;;;;;;;;;;;17.10;99.90;;;;;;5072140;28;19924;-69
2021/09/11 03:07:17;;;;;;;;;;;17.10;99.90;;;;;;5072098;28;19916;-69
2021/09/11 03:09:43;;;;;;;;;;;17.10;99.90;;;;;;5054627;28;19917;-69
2021/09/11 03:12:28;;;;;;;;;;;17.10;99.90;;;;;;5070438;28;20300;-70
2021/09/11 03:14:54;;;;;;;;;;;17.10;99.90;;;;;;5072070;28;19922;-69
2021/09/11 03:17:19;;;;;;;;;;;17.20;99.90;;;;;;5072135;28;19928;-69
2021/09/11 03:19:45;;;;;;;;;;;17.20;99.90;;;;;;5071837;28;19974;-69
2021/09/11 03:22:10;;;;;;;;;;;17.20;99.90;;;;;;5070970;28;20300;-69
2021/09/11 03:24:36;;;;;;;;;;;17.20;99.90;;;;;;5070153;28;19916;-69
2021/09/11 03:27:05;;;;;;;;;;;17.20;99.90;;;;;;5072023;28;19917;-69
2021/09/11 03:29:30;;;;;;;;;;;17.20;99.90;;;;;;5072134;28;19917;-69
2021/09/11 03:31:56;;;;;;;;;;;17.20;99.90;;;;;;5070313;28;19923;-69
2021/09/11 03:34:21;;;;;;;;;;;17.20;99.90;;;;;;5070571;28;19924;-69
2021/09/11 03:36:47;;;;;;;;;;;17.30;99.90;;;;;;5071519;28;19927;-70
2021/09/11 03:39:13;;;;;;;;;;;17.30;99.90;;;;;;5071768;28;19920;-69
2021/09/11 03:41:38;;;;;;;;;;;17.20;99.90;;;;;;5072006;28;19917;-69
2021/09/11 03:44:05;;;;;;;;;;;17.20;99.90;;;;;;5071555;28;19920;-70
2021/09/11 03:46:30;;;;;;;;;;;17.20;99.90;;;;;;5071401;28;19923;-70
2021/09/11 03:48:59;;;;;;;;;;;17.20;99.90;;;;;;5070458;28;20478;-70
2021/09/11 03:51:24;;;;;;;;;;;17.20;99.90;;;;;;5069944;28;20023;-69
2021/09/11 03:53:50;;;;;;;;;;;17.20;99.90;;;;;;5070487;28;19920;-70
2021/09/11 03:56:15;;;;;;;;;;;17.20;99.90;;;;;;5070877;28;20400;-69
2021/09/11 03:58:41;;;;;;;;;;;17.20;99.90;;;;;;5070341;28;19917;-68
2021/09/11 04:01:34;;;;;;;;;;;17.10;99.90;;;;;;5071548;28;19927;-70
2021/09/11 04:04:00;;;;;;;;;;;17.10;99.90;;;;;;5070042;28;19916;-68
2021/09/11 04:06:25;;;;;;;;;;;17.10;99.90;;;;;;5071366;28;19939;-69
2021/09/11 04:08:51;;;;;;;;;;;17.20;99.90;;;;;;5071065;28;19923;-68
2021/09/11 04:11:29;;;;;;;;;;;17.10;99.90;;;;;;5071560;28;19917;-68
2021/09/11 04:13:55;;;;;;;;;;;17.10;99.90;;;;;;5071179;28;20006;-70
2021/09/11 04:16:21;;;;;;;;;;;17.10;99.90;;;;;;5069768;28;20394;-69
2021/09/11 04:18:46;;;;;;;;;;;17.20;99.90;;;;;;5071459;28;19917;-70
2021/09/11 04:21:12;;;;;;;;;;;17.20;99.90;;;;;;5069851;28;19945;-70
2021/09/11 04:23:38;;;;;;;;;;;17.20;99.90;;;;;;5071440;28;19916;-69
2021/09/11 04:26:03;;;;;;;;;;;17.20;99.90;;;;;;5071075;28;19920;-69
2021/09/11 04:28:29;;;;;;;;;;;17.20;99.90;;;;;;5070047;28;19978;-69
2021/09/11 04:30:55;;;;;;;;;;;17.30;99.90;;;;;;5070146;28;19924;-69
2021/09/11 04:33:20;;;;;;;;;;;17.30;99.90;;;;;;5071384;28;20003;-69
2021/09/11 04:35:46;;;;;;;;;;;17.30;99.90;;;;;;5070614;28;19991;-69
2021/09/11 04:38:11;;;;;;;;;;;17.30;99.90;;;;;;5070979;28;19996;-69
2021/09/11 04:40:37;;;;;;;;;;;17.30;99.90;;;;;;5070815;28;19952;-69
2021/09/11 04:43:03;;;;;;;;;;;17.30;99.90;;;;;;5069863;28;19956;-69
2021/09/11 04:45:29;;;;;;;;;;;17.30;99.90;;;;;;5070975;28;19917;-69
2021/09/11 04:47:54;;;;;;;;;;;17.30;99.90;;;;;;5070701;28;19970;-69
2021/09/11 04:50:20;;;;;;;;;;;17.30;99.90;;;;;;5069930;28;19924;-68
2021/09/11 04:52:46;;;;;;;;;;;17.30;99.90;;;;;;5071135;28;20329;-69
2021/09/11 04:55:11;;;;;;;;;;;17.30;99.90;;;;;;5070342;28;19916;-69
2021/09/11 04:57:37;;;;;;;;;;;17.30;99.90;;;;;;5071006;28;19944;-68
2021/09/11 05:00:03;;;;;;;;;;;17.30;99.90;;;;;;5071108;28;19916;-69
2021/09/11 05:02:29;;;;;;;;;;;17.30;99.90;;;;;;5069484;28;19916;-69
2021/09/11 05:04:54;;;;;;;;;;;17.30;99.90;;;;;;5074076;28;19916;-69
2021/09/11 05:07:20;;;;;;;;;;;17.30;99.90;;;;;;5072945;28;19920;-69
2021/09/11 05:09:45;;;;;;;;;;;17.40;99.90;;;;;;5074672;28;19940;-70
2021/09/11 05:12:11;;;;;;;;;;;17.40;99.90;;;;;;5074690;28;20418;-69
2021/09/11 05:14:36;;;;;;;;;;;17.40;99.90;;;;;;5073935;28;19917;-69
2021/09/11 05:17:02;;;;;;;;;;;17.40;99.90;;;;;;5074536;28;19921;-69
2021/09/11 05:19:27;;;;;;;;;;;17.50;99.90;;;;;;5074332;28;19917;-69
2021/09/11 05:21:53;;;;;;;;;;;17.50;99.90;;;;;;5073242;28;20300;-69
2021/09/11 05:24:19;;;;;;;;;;;17.50;99.90;;;;;;5074056;28;20339;-67
2021/09/11 05:26:45;;;;;;;;;;;17.50;99.90;;;;;;5077867;28;20675;-68
2021/09/11 05:29:11;;;;;;;;;;;17.50;99.90;;;;;;5088252;28;19920;-68
2021/09/11 05:31:37;;;;;;;;;;;17.50;99.90;;;;;;5091876;28;19971;-69
2021/09/11 05:34:05;;;;;;;;;;;17.60;99.90;;;;;;5075883;28;19954;-68
2021/09/11 05:36:31;;;;;;;;;;;17.60;99.90;;;;;;5094130;28;19927;-69
2021/09/11 05:38:57;;;;;;;;;;;17.60;99.90;;;;;;5092584;28;19923;-69
2021/09/11 05:41:22;;;;;;;;;;;17.60;99.90;;;;;;5093963;28;19916;-69
2021/09/11 05:43:48;;;;;;;;;;;17.60;99.90;;;;;;5093912;28;19916;-69
2021/09/11 05:46:13;;;;;;;;;;;17.70;99.90;;;;;;5093613;28;19917;-69
2021/09/11 05:48:39;;;;;;;;;;;17.60;99.90;;;;;;5094124;28;19916;-69
2021/09/11 05:51:04;;;;;;;;;;;17.70;99.90;;;;;;5094833;28;20417;-68
2021/09/11 05:53:30;;;;;;;;;;;17.70;99.90;;;;;;5083543;28;20388;-69
2021/09/11 05:55:55;;;;;;;;;;;17.70;99.90;;;;;;5071879;28;20399;-68
2021/09/11 05:58:23;;;;;;;;;;;17.60;99.90;;;;;;5072409;28;19920;-69
2021/09/11 06:00:49;;;;;;;;;;;17.70;99.90;;;;;;5072132;28;19916;-69
2021/09/11 06:03:14;;;;;;;;;;;17.70;99.90;;;;;;5072495;28;20353;-69
2021/09/11 06:05:40;;;;;;;;;;;17.80;99.90;;;;;;5073053;28;20255;-69
2021/09/11 06:08:05;;;;;;;;;;;17.80;99.90;;;;;;5073418;28;20399;-69
2021/09/11 06:10:31;;;;;;;;;;;17.90;99.90;;;;;;5076195;28;19923;-67
2021/09/11 06:12:56;;;;;;;;;;;18.00;99.90;;;;;;5082322;28;19917;-69
2021/09/11 06:15:22;;;;;;;;;;;18.00;99.90;;;;;;5082272;28;20372;-69
2021/09/11 06:17:48;;;;;;;;;;;18.10;99.90;;;;;;5082862;28;19927;-69
2021/09/11 06:20:13;;;;;;;;;;;18.10;99.90;;;;;;5081901;28;19927;-69
2021/09/11 06:22:39;;;;;;;;;;;18.20;99.90;;;;;;5082502;28;19916;-69
2021/09/11 06:25:05;;;;;;;;;;;18.10;99.90;;;;;;5080027;28;19920;-69
2021/09/11 06:27:31;;;;;;;;;;;18.10;99.90;;;;;;5081144;28;19931;-69
2021/09/11 06:29:56;;;;;;;;;;;18.10;99.90;;;;;;5083473;28;19916;-68
2021/09/11 06:32:22;;;;;;;;;;;18.00;99.90;;;;;;5080412;28;19917;-70
2021/09/11 06:34:48;;;;;;;;;;;18.10;99.90;;;;;;5079591;28;19922;-68
2021/09/11 06:37:13;;;;;;;;;;;18.00;99.90;;;;;;5079616;28;20384;-69
2021/09/11 06:39:39;;;;;;;;;;;18.00;99.90;;;;;;5079625;28;19920;-70
2021/09/11 06:42:04;;;;;;;;;;;18.10;99.90;;;;;;5074841;28;19920;-70
2021/09/11 06:44:31;;;;;;;;;;;18.00;99.90;;;;;;5080144;28;19920;-69
2021/09/11 06:46:56;;;;;;;;;;;18.10;99.90;;;;;;5087143;28;19916;-70
2021/09/11 06:49:22;;;;;;;;;;;18.20;99.90;;;;;;5089073;28;19938;-70
2021/09/11 06:51:48;;;;;;;;;;;18.20;99.90;;;;;;5085325;28;19981;-70
2021/09/11 06:54:13;;;;;;;;;;;18.20;99.90;;;;;;5083274;28;19930;-70
2021/09/11 06:56:39;;;;;;;;;;;18.20;99.90;;;;;;5084748;28;20364;-68
2021/09/11 06:59:04;;;;;;;;;;;18.30;99.90;;;;;;5082987;28;19984;-70
2021/09/11 07:01:30;;;;;;;;;;;18.40;99.90;;;;;;5083192;28;19916;-69
2021/09/11 07:03:55;;;;;;;;;;;18.40;99.90;;;;;;5081171;28;19923;-69
2021/09/11 07:06:21;;;;;;;;;;;18.50;99.90;;;;;;5081056;28;19923;-70
2021/09/11 07:08:46;;;;;;;;;;;18.50;99.90;;;;;;5077276;28;19916;-70
2021/09/11 07:11:12;;;;;;;;;;;18.60;99.90;;;;;;5072246;28;19917;-70
2021/09/11 07:13:38;;;;;;;;;;;18.70;99.90;;;;;;5071756;28;19917;-69
2021/09/11 07:16:04;;;;;;;;;;;18.70;99.90;;;;;;5071694;28;19920;-69
2021/09/11 07:18:30;;;;;;;;;;;18.70;99.90;;;;;;5071791;28;19920;-69
2021/09/11 07:20:55;;;;;;;;;;;18.80;99.90;;;;;;5071936;28;19916;-71
2021/09/11 07:23:21;;;;;;;;;;;19.00;99.90;;;;;;5071930;28;20273;-70
2021/09/11 07:25:46;;;;;;;;;;;19.10;99.90;;;;;;5070947;28;19917;-70
2021/09/11 07:28:12;;;;;;;;;;;19.20;99.90;;;;;;5071429;28;19924;-68
2021/09/11 07:30:37;;;;;;;;;;;19.30;99.90;;;;;;5071902;28;19927;-71
2021/09/11 07:33:03;;;;;;;;;;;19.50;99.90;;;;;;5071394;28;19923;-71
2021/09/11 07:35:29;;;;;;;;;;;19.70;99.90;;;;;;5071832;28;20300;-70
2021/09/11 07:37:55;;;;;;;;;;;19.80;99.90;;;;;;5071106;28;19920;-70
2021/09/11 07:40:20;;;;;;;;;;;19.90;99.90;;;;;;5071126;28;19917;-71
2021/09/11 07:42:46;;;;;;;;;;;19.80;99.90;;;;;;5070557;28;19916;-69
2021/09/11 07:45:13;;;;;;;;;;;19.80;99.90;;;;;;5070252;28;19916;-70
2021/09/11 07:47:41;;;;;;;;;;;19.70;99.90;;;;;;5069798;28;19920;-69
2021/09/11 07:50:07;;;;;;;;;;;19.70;99.90;;;;;;5070867;28;19916;-69
2021/09/11 07:52:33;;;;;;;;;;;19.60;99.90;;;;;;5068993;28;20282;-69
2021/09/11 07:54:59;;;;;;;;;;;19.50;99.90;;;;;;5070594;28;19986;-70
2021/09/11 07:57:24;;;;;;;;;;;19.50;99.90;;;;;;5070683;28;19927;-68
2021/09/11 07:59:50;;;;;;;;;;;19.40;99.90;;;;;;5071210;28;19929;-70
2021/09/11 08:02:15;;;;;;;;;;;19.40;99.90;;;;;;5071561;28;19966;-70
2021/09/11 08:04:41;;;;;;;;;;;19.60;99.90;;;;;;5071080;28;19920;-70
2021/09/11 08:07:06;;;;;;;;;;;19.40;99.90;;;;;;5071109;28;20041;-70
2021/09/11 08:09:32;;;;;;;;;;;19.40;99.90;;;;;;5071468;28;19992;-70
2021/09/11 08:11:58;;;;;;;;;;;19.30;99.90;;;;;;5071198;28;20019;-69
2021/09/11 08:14:24;;;;;;;;;;;19.30;99.90;;;;;;5071323;28;20452;-70
2021/09/11 08:16:50;;;;;;;;;;;19.30;99.90;;;;;;5071167;28;19921;-69
2021/09/11 08:19:15;;;;;;;;;;;19.30;99.90;;;;;;5071126;28;19943;-70
2021/09/11 08:21:41;;;;;;;;;;;19.40;99.90;;;;;;5071396;28;19928;-70
2021/09/11 08:24:07;;;;;;;;;;;19.40;99.90;;;;;;5069770;28;20365;-70
2021/09/11 08:26:32;;;;;;;;;;;19.40;99.90;;;;;;5071218;28;20273;-70
2021/09/11 08:28:58;;;;;;;;;;;19.50;99.90;;;;;;5071336;28;20294;-68
2021/09/11 08:31:24;;;;;;;;;;;19.50;99.90;;;;;;5070892;28;19969;-69
2021/09/11 08:33:49;;;;;;;;;;;19.50;99.90;;;;;;5071356;28;20009;-70
2021/09/11 08:36:15;;;;;;;;;;;19.50;99.90;;;;;;5070835;28;19923;-69
2021/09/11 08:38:40;;;;;;;;;;;19.60;99.90;;;;;;5072449;28;19916;-70
2021/09/11 08:41:06;;;;;;;;;;;19.60;99.90;;;;;;5075323;28;19947;-70
2021/09/11 08:43:33;;;;;;;;;;;19.50;99.90;;;;;;5074955;28;19923;-69
2021/09/11 08:45:58;;;;;;;;;;;19.50;99.90;;;;;;5074870;28;20299;-70
2021/09/11 08:48:24;;;;;;;;;;;19.50;99.90;;;;;;5075007;28;19920;-69
2021/09/11 08:50:51;;;;;;;;;;;19.50;99.90;;;;;;5074561;28;19916;-69
2021/09/11 08:53:17;;;;;;;;;;;19.40;99.90;;;;;;5075173;28;19923;-69
2021/09/11 08:55:42;;;;;;;;;;;19.30;99.90;;;;;;5074715;28;19916;-69
2021/09/11 08:58:08;;;;;;;;;;;19.40;99.90;;;;;;5074373;28;19928;-70
2021/09/11 09:00:37;;;;;;;;;;;19.30;99.90;;;;;;5074960;28;20376;-70
2021/09/11 09:03:21;;;;;;;;;;;19.30;99.90;;;;;;5074431;28;20321;-69
2021/09/11 09:05:47;;;;;;;;;;;19.20;99.90;;;;;;5074582;28;19917;-69
2021/09/11 09:08:12;;;;;;;;;;;19.00;99.90;;;;;;5073442;28;20011;-69
2021/09/11 09:10:38;;;;;;;;;;;19.00;99.90;;;;;;5072927;28;19940;-68
2021/09/11 09:13:03;;;;;;;;;;;19.00;99.90;;;;;;5074676;28;20416;-70
2021/09/11 09:15:31;;;;;;;;;;;19.00;99.90;;;;;;5073797;28;20241;-70
2021/09/11 09:17:56;;;;;;;;;;;18.90;99.90;;;;;;5074212;28;19924;-69
2021/09/11 09:20:22;;;;;;;;;;;19.00;99.90;;;;;;5074608;28;19924;-70
2021/09/11 09:22:49;;;;;;;;;;;19.20;99.90;;;;;;5074048;28;20304;-70
2021/09/11 09:25:20;;;;;;;;;;;19.40;99.90;;;;;;5074145;28;19917;-69
2021/09/11 09:27:49;;;;;;;;;;;19.60;99.90;;;;;;5074190;28;19939;-69
2021/09/11 09:30:17;;;;;;;;;;;19.80;99.90;;;;;;5073904;28;19913;-68
2021/09/11 09:32:46;;;;;;;;;;;19.80;99.90;;;;;;5074197;28;20373;-68
2021/09/11 09:35:16;;;;;;;;;;;19.90;99.90;;;;;;5073469;28;20303;-68
2021/09/11 09:37:58;;;;;;;;;;;20.00;99.90;;;;;;5073931;28;19927;-68
2021/09/11 09:40:31;;;;;;;;;;;20.10;99.90;;;;;;5073705;28;19920;-68
2021/09/11 09:42:56;;;;;;;;;;;20.00;99.90;;;;;;5072666;28;19924;-69
2021/09/11 09:45:27;;;;;;;;;;;20.10;99.90;;;;;;5073269;28;19917;-69
2021/09/11 09:47:59;;;;;;;;;;;20.20;99.90;;;;;;5073838;28;19917;-69
2021/09/11 09:50:28;;;;;;;;;;;20.20;99.90;;;;;;5072932;28;19924;-70
2021/09/11 09:52:54;;;;;;;;;;;20.40;99.90;;;;;;5072484;28;19924;-69
2021/09/11 09:55:20;;;;;;;;;;;20.60;99.90;;;;;;5073370;28;19917;-69
2021/09/11 09:57:47;;;;;;;;;;;20.90;99.90;;;;;;5073249;28;19921;-69
2021/09/11 10:00:13;;;;;;;;;;;21.70;99.90;;;;;;5073897;28;19919;-68
2021/09/11 10:02:39;;;;;;;;;;;22.80;99.90;;;;;;5073818;28;20269;-67
2021/09/11 10:05:05;;;;;;;;;;;23.70;99.90;;;;;;5056040;28;20331;-69
2021/09/11 10:07:31;;;;;;;;;;;24.10;99.90;;;;;;5073784;28;20349;-68
2021/09/11 10:09:57;;;;;;;;;;;24.00;99.90;;;;;;5073300;28;19940;-70
2021/09/11 10:12:30;;;;;;;;;;;23.40;99.90;;;;;;5073598;28;19960;-70
2021/09/11 10:15:15;;;;;;;;;;;22.90;99.40;;;;;;5072940;28;19961;-70
2021/09/11 10:17:41;;;;;;;;;;;22.00;99.50;;;;;;5073142;28;19920;-69
2021/09/11 10:20:06;;;;;;;;;;;21.90;99.90;;;;;;5073481;28;20038;-69
2021/09/11 10:22:32;;;;;;;;;;;21.70;99.90;;;;;;5071524;28;19960;-69
2021/09/11 10:24:59;;;;;;;;;;;21.50;99.90;;;;;;5073243;28;20000;-71
2021/09/11 10:27:38;;;;;;;;;;;21.40;99.90;;;;;;5073451;28;19923;-71
2021/09/11 10:30:06;;;;;;;;;;;23.40;99.90;;;;;;5073287;28;19921;-69
2021/09/11 10:32:34;;;;;;;;;;;22.60;99.90;;;;;;5073209;28;20420;-69
2021/09/11 10:35:00;;;;;;;;;;;23.10;99.90;;;;;;5072810;28;20002;-69
2021/09/11 10:37:27;;;;;;;;;;;23.40;99.90;;;;;;5072550;28;20556;-68
2021/09/11 10:40:13;;;;;;;;;;;23.50;99.90;;;;;;5073131;28;20269;-69
2021/09/11 10:42:57;;;;;;;;;;;23.70;99.90;;;;;;5072610;28;19959;-68
2021/09/11 10:45:43;;;;;;;;;;;24.10;99.90;;;;;;5071347;28;19917;-69
2021/09/11 10:48:28;;;;;;;;;;;24.10;99.90;;;;;;5072499;28;20376;-67
2021/09/11 10:50:53;;;;;;;;;;;24.00;99.60;;;;;;5072804;28;19970;-69
2021/09/11 10:53:20;;;;;;;;;;;23.70;99.40;;;;;;5072383;28;19921;-67
2021/09/11 10:55:47;;;;;;;;;;;23.50;99.70;;;;;;5072205;28;19916;-69
2021/09/11 10:58:22;;;;;;;;;;;23.40;99.90;;;;;;5072319;28;19920;-68
2021/09/11 11:01:00;;;;;;;;;;;23.30;99.90;;;;;;5071620;28;19916;-68
2021/09/11 11:03:26;;;;;;;;;;;23.10;99.90;;;;;;5072162;28;19917;-68
2021/09/11 11:06:02;;;;;;;;;;;22.90;99.90;;;;;;5072293;28;19920;-69
2021/09/11 11:08:32;;;;;;;;;;;23.00;99.90;;;;;;5072261;28;19999;-68
2021/09/11 11:10:58;;;;;;;;;;;23.10;99.90;;;;;;5072363;28;19966;-68
2021/09/11 11:13:24;;;;;;;;;;;23.20;99.90;;;;;;5072487;28;19912;-68
2021/09/11 11:15:56;;;;;;;;;;;23.00;99.90;;;;;;5070297;28;20960;-68
2021/09/11 11:18:22;;;;;;;;;;;22.90;99.90;;;;;;5071923;28;20335;-68
2021/09/11 11:20:48;;;;;;;;;;;22.70;99.90;;;;;;5071868;28;19916;-68
2021/09/11 11:23:14;;;;;;;;;;;22.60;99.90;;;;;;5072327;28;20293;-68
2021/09/11 11:25:40;;;;;;;;;;;22.40;99.90;;;;;;5071768;28;19917;-68
2021/09/11 11:28:07;;;;;;;;;;;22.20;99.90;;;;;;5071563;28;20269;-69
2021/09/11 11:30:37;;;;;;;;;;;21.80;99.90;;;;;;5070719;28;19924;-68
2021/09/11 11:33:04;;;;;;;;;;;21.70;99.90;;;;;;5071424;28;20385;-68
2021/09/11 11:35:29;;;;;;;;;;;21.50;99.90;;;;;;5071672;28;20269;-69
2021/09/11 11:37:57;;;;;;;;;;;21.30;99.90;;;;;;5070553;28;20031;-68
2021/09/11 11:40:23;;;;;;;;;;;21.20;99.90;;;;;;5071460;28;20011;-69
2021/09/11 11:42:48;;;;;;;;;;;21.20;99.90;;;;;;5070435;28;19943;-69
2021/09/11 11:45:15;;;;;;;;;;;21.30;99.90;;;;;;5070239;28;19966;-69
2021/09/11 11:48:00;;;;;;;;;;;21.60;99.90;;;;;;5070059;28;19917;-71
2021/09/11 11:50:36;;;;;;;;;;;21.70;99.90;;;;;;5071818;28;19917;-70
2021/09/11 11:53:03;;;;;;;;;;;22.00;99.90;;;;;;5071886;28;19924;-70
2021/09/11 11:55:30;;;;;;;;;;;22.10;99.90;;;;;;5069995;28;19917;-71
2021/09/11 11:58:12;;;;;;;;;;;22.10;99.90;;;;;;5071071;28;20444;-71
2021/09/11 12:00:38;;;;;;;;;;;21.90;99.90;;;;;;5071886;28;19923;-70
2021/09/11 12:03:04;;;;;;;;;;;21.80;99.90;;;;;;5071251;28;20337;-70
2021/09/11 12:05:29;;;;;;;;;;;21.80;99.90;;;;;;5071356;28;19927;-72
2021/09/11 12:07:55;;;;;;;;;;;21.90;99.90;;;;;;5071265;28;19917;-70
2021/09/11 12:10:21;;;;;;;;;;;22.10;99.90;;;;;;5071475;28;20357;-71
2021/09/11 12:12:48;;;;;;;;;;;22.10;99.90;;;;;;5071317;28;19961;-71
2021/09/11 12:15:16;;;;;;;;;;;22.00;99.90;;;;;;5070928;28;19942;-71
2021/09/11 12:17:57;;;;;;;;;;;22.00;99.90;;;;;;5071267;28;19927;-70
2021/09/11 12:20:23;;;;;;;;;;;22.10;99.90;;;;;;5070970;28;19917;-70
2021/09/11 12:23:06;;;;;;;;;;;22.20;99.90;;;;;;5071208;28;19916;-71
2021/09/11 12:25:46;;;;;;;;;;;22.20;99.90;;;;;;5070663;28;19917;-71
2021/09/11 12:28:30;;;;;;;;;;;22.20;99.90;;;;;;5071237;28;19999;-71
2021/09/11 12:30:56;;;;;;;;;;;22.20;99.90;;;;;;5071055;28;20292;-71
2021/09/11 12:33:23;;;;;;;;;;;22.20;99.90;;;;;;5071301;28;19917;-71
2021/09/11 12:35:48;;;;;;;;;;;22.20;99.90;;;;;;5070776;28;19940;-70
2021/09/11 12:38:14;;;;;;;;;;;22.30;99.90;;;;;;5071068;28;19920;-70
2021/09/11 12:40:39;;;;;;;;;;;22.60;99.90;;;;;;5071235;28;19970;-71
2021/09/11 12:43:05;;;;;;;;;;;22.90;99.90;;;;;;5070740;28;19916;-72
2021/09/11 12:45:30;;;;;;;;;;;23.10;99.90;;;;;;5070993;28;19916;-71
2021/09/11 12:47:56;;;;;;;;;;;23.10;99.90;;;;;;5071088;28;20347;-70
2021/09/11 12:50:22;;;;;;;;;;;23.30;99.90;;;;;;5070511;28;20254;-71
2021/09/11 12:52:48;;;;;;;;;;;23.40;99.90;;;;;;5071143;28;19916;-71
2021/09/11 12:55:13;;;;;;;;;;;23.70;99.90;;;;;;5069587;28;20296;-71
2021/09/11 12:57:39;;;;;;;;;;;23.70;99.90;;;;;;5070464;28;20275;-71
2021/09/11 13:00:05;;;;;;;;;;;23.50;99.90;;;;;;5071039;28;19927;-70
2021/09/11 13:02:30;;;;;;;;;;;23.40;99.90;;;;;;5069734;28;19939;-70
2021/09/11 13:04:56;;;;;;;;;;;23.20;99.90;;;;;;5070208;28;20266;-70
2021/09/11 13:07:22;;;;;;;;;;;23.00;99.90;;;;;;5071186;28;20266;-71
2021/09/11 13:09:47;;;;;;;;;;;22.80;99.90;;;;;;5069463;28;20384;-71
2021/09/11 13:12:13;;;;;;;;;;;22.90;99.90;;;;;;5071094;28;19917;-70
2021/09/11 13:14:39;;;;;;;;;;;23.10;99.90;;;;;;5070715;28;20384;-70
2021/09/11 13:17:05;;;;;;;;;;;23.10;99.90;;;;;;5068864;28;19954;-69
2021/09/11 13:19:30;;;;;;;;;;;23.10;99.90;;;;;;5069561;28;19917;-69
2021/09/11 13:21:56;;;;;;;;;;;22.90;99.90;;;;;;5070318;28;19924;-70
2021/09/11 13:24:21;;;;;;;;;;;22.80;99.90;;;;;;5071514;28;19922;-69
2021/09/11 13:26:47;;;;;;;;;;;22.60;99.90;;;;;;5073044;28;19991;-71
2021/09/11 13:29:13;;;;;;;;;;;22.50;99.90;;;;;;5074066;28;19956;-71
2021/09/11 13:31:39;;;;;;;;;;;22.40;99.90;;;;;;5074388;28;19952;-71
2021/09/11 13:34:04;;;;;;;;;;;22.20;99.90;;;;;;5074273;28;19920;-71
2021/09/11 13:36:30;;;;;;;;;;;22.10;99.90;;;;;;5073572;28;19916;-71
2021/09/11 13:38:56;;;;;;;;;;;21.90;99.90;;;;;;5074105;28;20315;-70
2021/09/11 13:41:22;;;;;;;;;;;21.80;99.90;;;;;;5072372;28;19973;-71
2021/09/11 13:43:48;;;;;;;;;;;21.70;99.90;;;;;;5074251;28;20305;-71
2021/09/11 13:46:14;;;;;;;;;;;21.60;99.90;;;;;;5073930;28;19920;-71
2021/09/11 13:48:39;;;;;;;;;;;21.70;99.90;;;;;;5073573;28;19917;-69
2021/09/11 13:51:05;;;;;;;;;;;21.80;99.90;;;;;;5074266;28;19924;-71
2021/09/11 13:53:31;;;;;;;;;;;22.00;99.90;;;;;;5074122;28;20011;-71
2021/09/11 13:55:57;;;;;;;;;;;22.10;99.90;;;;;;5073241;28;20321;-70
2021/09/11 13:58:22;;;;;;;;;;;22.30;99.90;;;;;;5073750;28;20293;-71
2021/09/11 14:00:48;;;;;;;;;;;22.30;99.90;;;;;;5073817;28;20253;-71
2021/09/11 14:03:14;;;;;;;;;;;22.20;99.90;;;;;;5073406;28;19916;-69
2021/09/11 14:05:41;;;;;;;;;;;22.30;99.90;;;;;;5073646;28;19916;-70
2021/09/11 14:08:07;;;;;;;;;;;22.20;99.90;;;;;;5073386;28;19917;-70
2021/09/11 14:10:32;;;;;;;;;;;22.20;99.90;;;;;;5073770;28;20368;-71
2021/09/11 14:12:58;;;;;;;;;;;22.20;99.90;;;;;;5073710;28;20007;-71
2021/09/11 14:15:24;;;;;;;;;;;22.30;99.90;;;;;;5072974;28;19927;-71